Time;durP1;ratioP1;P1;durP2;ratioP2;P2;SDS_P1;SDS_P2;PMS_P1;PMS_P2;Temp;Humidity;BMP_temperature;BMP_pressure;BME280_temperature;BME280_humidity;BME280_pressure;Samples;Min_cycle;Max_cycle;Signal;HPM_P1;HPM_P2
2020/12/24 00:02:09;;;;;;;0.93;0.70;;;;;;;11.54;64.39;96204.81;5101511;28;20562;-73
2020/12/24 00:04:35;;;;;;;1.20;0.80;;;;;;;11.45;65.12;96211.97;5089230;28;20178;-72
2020/12/24 00:07:00;;;;;;;1.33;0.50;;;;;;;11.28;64.25;96223.63;5075611;28;20414;-74
2020/12/24 00:09:26;;;;;;;1.80;0.80;;;;;;;10.99;64.35;96222.63;5086430;28;20207;-72
2020/12/24 00:11:52;;;;;;;1.40;0.60;;;;;;;11.10;63.39;96211.69;5076633;28;20196;-72
2020/12/24 00:14:18;;;;;;;1.33;0.60;;;;;;;11.03;62.24;96206.34;5106166;28;20181;-74
2020/12/24 00:16:43;;;;;;;1.20;0.70;;;;;;;10.86;62.69;96202.28;5094059;28;20213;-72
2020/12/24 00:19:09;;;;;;;2.10;0.80;;;;;;;11.45;61.24;96198.88;5052752;28;20770;-72
2020/12/24 00:21:36;;;;;;;1.33;0.70;;;;;;;11.37;61.45;96193.69;5094622;28;20295;-72
2020/12/24 00:24:03;;;;;;;1.20;0.70;;;;;;;11.35;60.64;96201.75;5093922;28;20200;-73
2020/12/24 00:26:28;;;;;;;2.33;0.70;;;;;;;11.43;60.66;96208.72;5111220;28;20941;-72
2020/12/24 00:28:54;;;;;;;1.03;0.67;;;;;;;11.11;60.83;96210.69;5111793;28;20513;-72
2020/12/24 00:31:20;;;;;;;1.73;0.70;;;;;;;11.38;60.39;96197.94;5056601;28;20186;-72
2020/12/24 00:33:45;;;;;;;3.57;1.90;;;;;;;11.22;60.83;96209.44;5105142;28;20196;-72
2020/12/24 00:36:11;;;;;;;1.00;0.70;;;;;;;11.14;60.70;96230.53;5094031;28;20586;-72
2020/12/24 00:38:37;;;;;;;1.00;0.70;;;;;;;11.14;60.94;96204.28;5091345;28;21034;-73
2020/12/24 00:41:03;;;;;;;1.30;0.77;;;;;;;11.28;60.45;96189.53;5114026;28;20189;-72
2020/12/24 00:43:28;;;;;;;1.20;0.70;;;;;;;11.17;61.60;96206.53;5064536;28;20216;-71
2020/12/24 00:45:54;;;;;;;1.17;0.50;;;;;;;11.05;61.96;96196.50;5090716;28;20281;-72
2020/12/24 00:48:20;;;;;;;0.80;0.60;;;;;;;11.30;61.19;96187.56;5116331;28;20222;-71
2020/12/24 00:50:45;;;;;;;1.00;0.70;;;;;;;11.28;61.99;96200.03;5118503;28;20196;-71
2020/12/24 00:53:11;;;;;;;1.90;0.70;;;;;;;11.15;62.24;96209.34;5116741;28;20414;-71
2020/12/24 00:55:37;;;;;;;1.53;0.70;;;;;;;10.74;64.42;96210.56;5116558;28;20546;-71
2020/12/24 00:58:03;;;;;;;0.80;0.60;;;;;;;10.73;64.66;96221.22;5115335;28;20316;-71
2020/12/24 01:00:29;;;;;;;1.00;0.63;;;;;;;11.04;64.05;96226.31;5115284;28;20518;-71
2020/12/24 01:02:54;;;;;;;1.43;0.73;;;;;;;10.95;64.54;96229.22;5106942;28;20187;-72
2020/12/24 01:05:20;;;;;;;1.20;0.60;;;;;;;10.82;65.50;96224.59;5117960;28;20169;-71
2020/12/24 01:07:46;;;;;;;1.00;0.67;;;;;;;11.07;65.70;96225.97;5115661;28;20770;-70
2020/12/24 01:10:12;;;;;;;1.10;0.87;;;;;;;10.79;67.26;96235.41;5114699;28;20256;-71
2020/12/24 01:12:38;;;;;;;1.87;0.70;;;;;;;10.38;68.74;96241.78;5096616;28;20425;-72
2020/12/24 01:15:09;;;;;;;3.10;0.87;;;;;;;10.74;68.28;96241.19;5112128;28;20420;-70
2020/12/24 01:17:35;;;;;;;2.00;0.80;;;;;;;11.08;67.82;96247.78;5094358;28;20569;-73
2020/12/24 01:20:01;;;;;;;1.40;1.00;;;;;;;11.05;67.71;96238.44;5111779;28;20444;-72
2020/12/24 01:22:27;;;;;;;0.80;0.60;;;;;;;10.76;69.51;96236.59;5119935;28;20531;-72
2020/12/24 01:24:52;;;;;;;3.90;0.80;;;;;;;11.30;67.81;96230.31;5122084;28;21012;-71
2020/12/24 01:27:18;;;;;;;1.40;0.60;;;;;;;11.36;67.63;96226.16;5114749;28;20698;-71
2020/12/24 01:29:44;;;;;;;3.00;0.80;;;;;;;11.15;69.42;96230.34;5116932;28;20181;-72
2020/12/24 01:32:10;;;;;;;3.47;0.70;;;;;;;11.22;69.46;96239.09;5102084;28;20231;-71
2020/12/24 01:34:35;;;;;;;1.00;0.67;;;;;;;11.11;70.17;96251.84;5113094;28;20183;-70
2020/12/24 01:37:02;;;;;;;0.90;0.60;;;;;;;10.96;71.15;96257.06;5117715;28;20261;-71
2020/12/24 01:39:28;;;;;;;0.93;0.70;;;;;;;11.16;70.31;96250.31;5082934;28;20200;-71
2020/12/24 01:41:54;;;;;;;1.40;0.70;;;;;;;11.25;70.26;96251.06;5118479;28;20430;-71
2020/12/24 01:44:19;;;;;;;1.50;0.60;;;;;;;11.17;70.39;96251.13;5118299;28;20419;-71
2020/12/24 01:46:47;;;;;;;1.40;0.67;;;;;;;11.12;70.85;96262.16;5110576;28;20189;-71
2020/12/24 01:49:13;;;;;;;1.87;0.73;;;;;;;10.93;71.42;96281.00;5116787;28;20571;-70
2020/12/24 01:51:39;;;;;;;0.80;0.50;;;;;;;10.98;70.53;96286.53;5118456;28;20415;-71
2020/12/24 01:54:04;;;;;;;1.13;0.60;;;;;;;10.86;70.17;96286.94;5117161;28;20177;-71
2020/12/24 01:56:30;;;;;;;1.20;0.60;;;;;;;10.77;68.64;96293.25;5116758;28;20469;-71
2020/12/24 01:58:56;;;;;;;1.30;0.80;;;;;;;10.24;70.68;96288.66;5117146;28;20201;-70
2020/12/24 02:01:21;;;;;;;0.90;0.63;;;;;;;10.25;69.99;96279.81;5095428;28;20178;-73
2020/12/24 02:03:48;;;;;;;2.33;0.70;;;;;;;10.49;67.77;96233.53;5110862;28;20236;-71
2020/12/24 02:06:13;;;;;;;1.43;0.60;;;;;;;10.55;66.29;96232.84;5116949;28;20180;-70
2020/12/24 02:08:39;;;;;;;1.27;0.60;;;;;;;10.20;66.60;96223.72;5116810;28;20578;-71
2020/12/24 02:11:07;;;;;;;2.20;0.80;;;;;;;9.93;67.73;96250.22;5115241;28;20177;-71
2020/12/24 02:13:33;;;;;;;2.97;0.80;;;;;;;10.11;64.49;96228.19;5110115;28;20207;-71
2020/12/24 02:15:59;;;;;;;3.77;0.70;;;;;;;10.25;63.35;96214.34;5091292;28;20452;-71
2020/12/24 02:18:25;;;;;;;2.73;0.80;;;;;;;10.08;64.51;96212.84;5116953;28;20464;-70
2020/12/24 02:20:51;;;;;;;2.90;0.77;;;;;;;9.80;65.29;96210.72;5119238;28;20172;-70
2020/12/24 02:23:17;;;;;;;2.70;0.63;;;;;;;10.03;64.12;96166.22;5116992;28;20422;-70
2020/12/24 02:25:43;;;;;;;1.67;0.80;;;;;;;10.14;62.92;96157.16;5119235;28;20808;-71
2020/12/24 02:28:09;;;;;;;6.60;0.90;;;;;;;10.24;62.71;96147.25;5111303;28;20200;-71
2020/12/24 02:30:38;;;;;;;1.50;0.70;;;;;;;10.14;62.08;96150.09;5113662;28;20169;-70
2020/12/24 02:33:05;;;;;;;0.90;0.60;;;;;;;10.06;61.58;96155.41;5104361;28;20459;-71
2020/12/24 02:35:31;;;;;;;2.60;0.63;;;;;;;9.90;61.74;96145.88;5116223;28;20433;-71
2020/12/24 02:37:57;;;;;;;1.30;0.70;;;;;;;9.89;61.38;96148.69;5099734;28;20859;-71
2020/12/24 02:40:23;;;;;;;1.10;0.47;;;;;;;9.98;61.76;96150.25;5100071;28;20410;-71
2020/12/24 02:42:49;;;;;;;1.73;0.50;;;;;;;10.02;62.02;96153.31;5117051;28;20177;-71
2020/12/24 02:45:15;;;;;;;0.90;0.60;;;;;;;9.98;63.29;96156.28;5118217;28;20441;-70
2020/12/24 02:47:41;;;;;;;2.23;1.07;;;;;;;9.79;64.20;96148.88;5117934;28;20280;-70
2020/12/24 02:50:08;;;;;;;1.00;0.70;;;;;;;9.69;64.78;96146.50;5116608;28;20177;-70
2020/12/24 02:52:34;;;;;;;1.93;0.60;;;;;;;9.50;65.10;96152.97;5117066;28;20196;-72
2020/12/24 02:55:02;;;;;;;1.00;0.60;;;;;;;10.02;63.80;96148.88;5116532;28;20429;-70
2020/12/24 02:57:28;;;;;;;1.57;0.70;;;;;;;9.61;65.21;96157.81;5099612;28;20499;-70
2020/12/24 02:59:54;;;;;;;3.83;0.70;;;;;;;9.61;64.28;96160.44;5116779;28;20431;-70
2020/12/24 03:02:20;;;;;;;3.33;0.70;;;;;;;9.76;65.08;96167.53;5106363;28;20173;-71
2020/12/24 03:04:45;;;;;;;4.50;0.80;;;;;;;10.09;63.27;96169.94;5118086;28;20191;-71
2020/12/24 03:07:11;;;;;;;1.20;0.70;;;;;;;10.01;63.53;96177.88;5116712;28;20655;-70
2020/12/24 03:09:37;;;;;;;1.10;0.60;;;;;;;9.42;65.51;96179.16;5116653;28;20212;-71
2020/12/24 03:12:02;;;;;;;0.80;0.47;;;;;;;9.44;66.03;96192.91;5116175;28;20192;-72
2020/12/24 03:14:28;;;;;;;1.30;0.60;;;;;;;9.96;64.23;96197.50;5117019;28;20620;-71
2020/12/24 03:16:54;;;;;;;1.00;0.60;;;;;;;9.83;65.15;96189.41;5099777;28;20198;-72
2020/12/24 03:19:19;;;;;;;0.87;0.70;;;;;;;9.84;64.58;96170.09;5116699;28;20699;-71
2020/12/24 03:21:45;;;;;;;1.30;0.63;;;;;;;9.89;64.57;96154.72;5117751;28;20185;-72
2020/12/24 03:24:11;;;;;;;2.10;0.50;;;;;;;9.96;64.80;96129.47;5117132;28;20173;-71
2020/12/24 03:26:37;;;;;;;2.70;0.50;;;;;;;10.01;64.52;96122.91;5117833;28;20207;-72
2020/12/24 03:29:02;;;;;;;1.30;0.57;;;;;;;9.97;64.80;96128.47;5117939;28;20239;-72
2020/12/24 03:31:28;;;;;;;0.87;0.60;;;;;;;9.80;66.24;96129.59;5110092;28;20204;-72
2020/12/24 03:33:54;;;;;;;0.80;0.57;;;;;;;9.94;65.73;96125.41;5112659;28;20177;-72
2020/12/24 03:36:21;;;;;;;2.77;0.70;;;;;;;9.77;66.50;96122.09;5100075;28;20189;-71
2020/12/24 03:38:47;;;;;;;1.20;0.60;;;;;;;9.82;66.83;96117.94;5117321;28;20510;-72
2020/12/24 03:41:12;;;;;;;2.00;0.80;;;;;;;9.82;66.67;96117.16;5099434;28;20454;-72
2020/12/24 03:43:38;;;;;;;1.10;0.70;;;;;;;9.82;66.97;96109.31;5117785;28;20282;-70
2020/12/24 03:46:04;;;;;;;0.80;0.60;;;;;;;9.63;67.50;96113.19;5114848;28;20187;-71
2020/12/24 03:48:30;;;;;;;2.33;0.60;;;;;;;9.55;67.70;96103.59;5116302;28;20675;-71
2020/12/24 03:50:56;;;;;;;2.53;0.60;;;;;;;9.55;67.91;96094.91;5116576;28;20780;-72
2020/12/24 03:53:21;;;;;;;0.80;0.60;;;;;;;9.61;67.85;96109.94;5098878;28;20789;-71
2020/12/24 03:55:47;;;;;;;1.97;0.70;;;;;;;9.62;67.95;96120.19;5105409;28;20237;-72
2020/12/24 03:58:13;;;;;;;3.20;0.97;;;;;;;9.60;67.50;96119.56;5120559;28;20197;-71
2020/12/24 04:00:39;;;;;;;2.97;0.73;;;;;;;9.68;67.01;96135.22;5117091;28;20418;-71
2020/12/24 04:03:06;;;;;;;1.53;0.63;;;;;;;9.48;67.73;96136.63;5087796;28;20414;-71
2020/12/24 04:05:32;;;;;;;4.13;0.80;;;;;;;9.42;68.39;96135.50;5098993;28;20502;-71
2020/12/24 04:07:57;;;;;;;1.83;0.70;;;;;;;9.33;68.50;96139.97;5090495;28;20473;-71
2020/12/24 04:10:23;;;;;;;2.17;0.53;;;;;;;9.30;67.97;96129.03;5097701;28;20769;-71
2020/12/24 04:12:49;;;;;;;1.00;0.60;;;;;;;9.07;68.09;96146.28;5099037;28;20686;-72
2020/12/24 04:15:15;;;;;;;1.37;0.60;;;;;;;9.40;66.87;96141.91;5110250;28;20181;-72
2020/12/24 04:17:40;;;;;;;0.90;0.60;;;;;;;9.32;67.16;96147.97;5112993;28;20303;-72
2020/12/24 04:20:06;;;;;;;6.90;0.70;;;;;;;9.59;66.26;96149.31;5115471;28;20185;-73
2020/12/24 04:22:32;;;;;;;1.23;0.60;;;;;;;9.56;66.32;96154.91;5111726;28;20520;-73
2020/12/24 04:24:59;;;;;;;1.87;0.70;;;;;;;9.70;66.57;96136.84;5086660;28;20548;-73
2020/12/24 04:27:25;;;;;;;1.47;0.60;;;;;;;9.57;66.74;96145.25;5111631;28;20169;-73
2020/12/24 04:29:51;;;;;;;2.43;0.77;;;;;;;9.67;66.38;96136.22;5102792;28;21021;-73
2020/12/24 04:32:16;;;;;;;9.20;0.70;;;;;;;9.86;66.19;96136.72;5100581;28;20177;-72
2020/12/24 04:34:42;;;;;;;3.37;0.80;;;;;;;9.26;67.62;96122.53;5111898;28;20913;-74
2020/12/24 04:37:08;;;;;;;3.90;0.60;;;;;;;9.45;67.74;96116.06;5093333;28;20610;-75
2020/12/24 04:39:34;;;;;;;1.30;0.70;;;;;;;9.67;67.42;96127.53;5085628;28;20706;-72
2020/12/24 04:41:59;;;;;;;2.70;0.73;;;;;;;9.78;66.51;96136.78;5109914;28;20181;-74
2020/12/24 04:44:27;;;;;;;3.00;0.60;;;;;;;9.43;67.83;96138.97;5111240;28;20185;-74
2020/12/24 04:46:55;;;;;;;1.83;0.60;;;;;;;9.52;67.79;96127.47;5076338;28;20188;-74
2020/12/24 04:49:24;;;;;;;1.10;0.67;;;;;;;9.45;67.73;96131.75;5074155;28;20439;-74
2020/12/24 04:51:49;;;;;;;1.00;0.50;;;;;;;9.57;67.38;96126.94;5075862;28;20916;-73
2020/12/24 04:54:16;;;;;;;1.30;0.67;;;;;;;9.45;66.88;96121.31;5093092;28;20407;-73
2020/12/24 04:56:42;;;;;;;2.73;0.63;;;;;;;9.48;67.50;96105.25;5075636;28;20211;-73
2020/12/24 04:59:07;;;;;;;2.10;0.70;;;;;;;9.57;66.57;96104.22;5084078;28;20438;-74
2020/12/24 05:01:33;;;;;;;2.20;0.70;;;;;;;9.42;67.15;96098.09;5111631;28;20184;-73
2020/12/24 05:03:59;;;;;;;1.47;0.77;;;;;;;9.24;67.80;96099.16;5092762;28;20230;-74
2020/12/24 05:06:25;;;;;;;1.53;0.70;;;;;;;9.34;67.30;96097.13;5059753;28;20260;-73
2020/12/24 05:08:56;;;;;;;5.23;0.70;;;;;;;9.28;67.25;96095.22;5111269;28;20201;-73
2020/12/24 05:11:28;;;;;;;0.90;0.60;;;;;;;9.11;67.73;96096.28;5094690;28;20461;-74
2020/12/24 05:13:56;;;;;;;2.17;0.63;;;;;;;9.29;67.37;96102.09;5094247;28;20963;-73
2020/12/24 05:16:22;;;;;;;1.70;0.60;;;;;;;9.32;66.71;96098.31;5107534;28;20447;-73
2020/12/24 05:18:48;;;;;;;0.87;0.50;;;;;;;9.14;67.30;96098.56;5106418;28;20553;-73
2020/12/24 05:21:31;;;;;;;1.00;0.60;;;;;;;9.07;67.46;96099.22;5114351;28;20770;-74
2020/12/24 05:23:57;;;;;;;1.87;0.67;;;;;;;8.64;69.28;96088.28;5125314;28;20418;-74
2020/12/24 05:26:22;;;;;;;1.70;0.80;;;;;;;8.94;67.83;96096.34;5083317;28;20423;-73
2020/12/24 05:28:48;;;;;;;0.97;0.60;;;;;;;9.06;67.45;96108.06;5114080;28;20442;-73
2020/12/24 05:31:30;;;;;;;1.10;1.00;;;;;;;8.95;68.06;96100.56;5113346;28;20173;-73
2020/12/24 05:33:56;;;;;;;5.07;0.70;;;;;;;8.79;68.49;96105.88;5110854;28;20200;-73
2020/12/24 05:36:22;;;;;;;2.40;0.80;;;;;;;8.99;67.62;96104.50;5111566;28;20479;-74
2020/12/24 05:38:50;;;;;;;4.77;0.80;;;;;;;8.87;68.16;96104.06;5092757;28;20197;-73
2020/12/24 05:41:32;;;;;;;1.60;0.70;;;;;;;8.82;67.95;96102.94;5111367;28;20945;-73
2020/12/24 05:44:01;;;;;;;1.87;0.70;;;;;;;8.30;69.51;96104.97;5110782;28;20422;-73
2020/12/24 05:46:28;;;;;;;3.37;0.83;;;;;;;8.74;68.21;96104.56;5112252;28;20427;-73
2020/12/24 05:48:54;;;;;;;1.77;0.70;;;;;;;8.50;68.29;96112.47;5105729;28;20476;-73
2020/12/24 05:51:20;;;;;;;2.40;0.80;;;;;;;8.80;68.15;96091.84;5075796;28;20507;-72
2020/12/24 05:53:47;;;;;;;1.20;0.77;;;;;;;8.65;68.91;96083.84;5092622;28;20426;-74
2020/12/24 05:56:20;;;;;;;4.30;0.80;;;;;;;8.69;68.59;96086.00;5092994;28;20467;-73
2020/12/24 05:58:47;;;;;;;1.50;0.70;;;;;;;8.71;67.80;96077.97;5110768;28;20853;-73
2020/12/24 06:01:14;;;;;;;1.30;0.60;;;;;;;8.70;67.92;96071.91;5111124;28;20426;-73
2020/12/24 06:03:49;;;;;;;2.33;0.70;;;;;;;8.81;67.52;96072.56;5110878;28;20464;-72
2020/12/24 06:06:18;;;;;;;3.43;0.90;;;;;;;8.49;68.27;96063.81;5096339;28;20522;-72
2020/12/24 06:08:46;;;;;;;5.73;0.70;;;;;;;8.45;68.48;96058.91;5092437;28;20507;-73
2020/12/24 06:11:13;;;;;;;1.63;1.00;;;;;;;8.55;68.31;96068.41;5095956;28;20454;-73
2020/12/24 06:13:38;;;;;;;3.80;0.80;;;;;;;8.63;68.06;96065.75;5108587;28;20790;-73
2020/12/24 06:16:09;;;;;;;1.73;0.80;;;;;;;8.50;68.96;96062.84;5091699;28;20454;-73
2020/12/24 06:18:37;;;;;;;4.00;0.80;;;;;;;8.54;68.57;96057.13;5107196;28;20207;-73
2020/12/24 06:21:03;;;;;;;1.93;0.70;;;;;;;8.81;67.50;96059.50;5092878;28;20424;-73
2020/12/24 06:23:34;;;;;;;3.37;0.90;;;;;;;8.83;67.53;96049.66;5075764;28;20467;-73
2020/12/24 06:26:03;;;;;;;3.77;0.97;;;;;;;8.78;67.18;96052.00;5092218;28;20506;-72
2020/12/24 06:28:29;;;;;;;5.37;0.80;;;;;;;9.06;66.84;96045.34;5095763;28;20442;-74
2020/12/24 06:30:59;;;;;;;1.20;0.70;;;;;;;9.10;66.33;96051.03;5097405;28;21071;-72
2020/12/24 06:33:26;;;;;;;1.90;0.77;;;;;;;9.09;66.45;96043.34;5092357;28;20498;-74
2020/12/24 06:35:52;;;;;;;3.00;0.90;;;;;;;8.87;67.09;96043.97;5093199;28;20790;-73
2020/12/24 06:38:45;;;;;;;3.97;0.90;;;;;;;8.78;67.26;96036.31;5093418;28;20492;-73
2020/12/24 06:41:25;;;;;;;5.87;0.80;;;;;;;8.78;66.83;96044.97;5080928;28;20204;-73
2020/12/24 06:43:51;;;;;;;3.83;0.80;;;;;;;9.21;65.99;96028.91;5089461;28;20449;-73
2020/12/24 06:46:17;;;;;;;3.47;1.00;;;;;;;9.21;65.47;96027.13;5093311;28;20503;-73
2020/12/24 06:48:58;;;;;;;2.33;1.13;;;;;;;9.13;66.13;96026.34;5087238;28;20226;-73
2020/12/24 06:51:24;;;;;;;4.50;1.07;;;;;;;9.15;65.86;96029.63;5086316;28;20423;-73
2020/12/24 06:53:49;;;;;;;7.87;1.10;;;;;;;9.09;65.92;96032.91;5093314;28;20435;-73
2020/12/24 06:56:15;;;;;;;2.13;0.80;;;;;;;9.19;65.58;96026.47;5093425;28;20569;-74
2020/12/24 06:58:46;;;;;;;5.20;0.93;;;;;;;9.04;66.05;96031.63;5089419;28;20220;-74
2020/12/24 07:01:16;;;;;;;2.13;0.90;;;;;;;9.05;66.07;96025.44;5097011;28;20403;-74
2020/12/24 07:03:43;;;;;;;8.43;1.20;;;;;;;8.83;66.03;96020.94;5105811;28;20554;-74
2020/12/24 07:06:09;;;;;;;1.50;1.10;;;;;;;8.87;66.48;96014.41;5097187;28;20510;-74
2020/12/24 07:08:35;;;;;;;4.37;1.00;;;;;;;8.96;66.85;96008.13;5113564;28;20442;-74
2020/12/24 07:11:04;;;;;;;3.90;1.10;;;;;;;8.84;66.70;96009.50;5113407;28;20516;-74
2020/12/24 07:13:34;;;;;;;5.17;1.30;;;;;;;8.78;66.26;96011.00;5114539;28;20173;-74
2020/12/24 07:16:10;;;;;;;4.40;0.90;;;;;;;8.66;66.58;96004.53;5105590;27;20766;-73
2020/12/24 07:18:40;;;;;;;4.00;1.03;;;;;;;8.48;67.55;96005.59;5113599;28;20953;-74
2020/12/24 07:21:08;;;;;;;3.00;1.23;;;;;;;8.68;66.16;96008.63;5113029;28;20427;-74
2020/12/24 07:23:38;;;;;;;2.33;0.80;;;;;;;8.85;65.34;95998.06;5095619;28;20522;-73
2020/12/24 07:26:06;;;;;;;5.63;1.20;;;;;;;8.78;65.37;95995.31;5094932;28;20419;-73
2020/12/24 07:28:34;;;;;;;6.13;1.53;;;;;;;8.62;65.05;95996.22;5089599;28;20837;-74
2020/12/24 07:31:02;;;;;;;4.50;1.40;;;;;;;8.59;64.45;95991.31;5094823;28;20484;-74
2020/12/24 07:33:28;;;;;;;4.27;1.23;;;;;;;8.84;63.45;95986.00;5113148;28;20458;-73
2020/12/24 07:35:54;;;;;;;3.80;1.20;;;;;;;8.86;64.41;95981.41;5094834;28;20805;-73
2020/12/24 07:38:24;;;;;;;2.30;0.80;;;;;;;8.72;64.47;95975.94;5113030;28;20784;-73
2020/12/24 07:40:50;;;;;;;5.30;1.30;;;;;;;8.65;64.17;95982.00;5081465;28;20460;-73
2020/12/24 07:43:16;;;;;;;5.83;1.10;;;;;;;8.62;63.93;95979.75;5111058;28;20514;-74
2020/12/24 07:45:43;;;;;;;2.80;1.10;;;;;;;8.73;63.09;95980.16;5094595;28;20430;-74
2020/12/24 07:48:13;;;;;;;9.20;1.43;;;;;;;8.68;62.74;95977.28;5096126;28;20971;-74
2020/12/24 07:50:40;;;;;;;8.10;1.20;;;;;;;8.69;62.87;95970.22;5077851;28;20423;-73
2020/12/24 07:53:08;;;;;;;4.60;1.40;;;;;;;8.73;61.87;95976.75;5094732;28;20419;-74
2020/12/24 07:55:34;;;;;;;4.50;1.53;;;;;;;8.89;61.67;95975.84;5112463;28;20829;-73
2020/12/24 07:58:07;;;;;;;7.57;1.30;;;;;;;8.51;62.25;95967.88;5105340;28;20489;-74
2020/12/24 08:00:53;;;;;;;3.83;1.20;;;;;;;8.75;62.23;95965.13;5073541;28;20181;-74
2020/12/24 08:03:19;;;;;;;4.83;1.00;;;;;;;8.65;61.61;95961.94;5103664;28;20848;-71
2020/12/24 08:05:47;;;;;;;6.47;1.20;;;;;;;8.63;62.22;95971.72;5117921;28;20422;-71
2020/12/24 08:08:21;;;;;;;6.43;1.43;;;;;;;8.48;61.54;95953.34;5104865;28;20756;-72
2020/12/24 08:10:47;;;;;;;5.10;1.30;;;;;;;8.55;61.71;95958.72;5110859;28;20454;-71
2020/12/24 08:13:13;;;;;;;3.00;0.90;;;;;;;8.76;61.27;95969.38;5092604;28;20411;-72
2020/12/24 08:15:40;;;;;;;2.90;1.00;;;;;;;8.63;60.80;95963.09;5113339;28;20982;-73
2020/12/24 08:18:09;;;;;;;5.03;1.37;;;;;;;8.20;62.14;95979.00;5114015;28;20223;-71
2020/12/24 08:21:03;;;;;;;4.20;1.43;;;;;;;8.39;61.93;95955.16;5079088;28;20560;-72
2020/12/24 08:23:55;;;;;;;4.93;0.93;;;;;;;8.45;62.33;95964.09;5108493;28;20489;-73
2020/12/24 08:26:21;;;;;;;4.97;1.17;;;;;;;8.69;61.32;95971.06;5082796;28;20783;-72
2020/12/24 08:28:55;;;;;;;2.77;1.20;;;;;;;8.49;62.02;95975.06;5090386;28;20442;-74
2020/12/24 08:31:22;;;;;;;5.70;1.17;;;;;;;8.58;62.07;95963.56;5113655;28;20168;-72
2020/12/24 08:33:50;;;;;;;2.60;1.10;;;;;;;8.35;62.78;95969.50;5094635;28;20437;-74
2020/12/24 08:36:26;;;;;;;4.67;1.47;;;;;;;8.14;63.15;95973.50;5106824;28;20443;-73
2020/12/24 08:39:06;;;;;;;3.07;1.20;;;;;;;8.55;62.95;95969.97;5113087;28;20477;-73
2020/12/24 08:41:35;;;;;;;7.57;1.87;;;;;;;8.16;63.37;95973.31;5113391;28;20994;-73
2020/12/24 08:44:03;;;;;;;9.50;1.10;;;;;;;8.37;63.43;95972.78;5095263;28;20427;-72
2020/12/24 08:46:29;;;;;;;2.83;1.30;;;;;;;8.35;63.54;95974.72;5113773;28;20435;-72
2020/12/24 08:48:54;;;;;;;2.90;1.00;;;;;;;8.50;63.08;95968.84;5112141;28;20470;-72
2020/12/24 08:51:20;;;;;;;4.00;1.10;;;;;;;8.45;63.39;95967.50;5106547;28;20933;-70
2020/12/24 08:53:46;;;;;;;2.57;0.93;;;;;;;8.04;64.16;95961.63;5094559;28;20263;-72
2020/12/24 08:56:13;;;;;;;1.10;0.77;;;;;;;8.38;63.32;95963.16;5070083;28;20210;-71
2020/12/24 08:59:08;;;;;;;4.07;0.97;;;;;;;8.52;62.99;95959.06;5077695;28;20776;-70
2020/12/24 09:01:39;;;;;;;1.97;1.00;;;;;;;8.06;64.61;95950.03;5089290;28;20450;-72
2020/12/24 09:04:15;;;;;;;2.80;0.80;;;;;;;8.37;63.86;95959.72;5093141;28;20425;-71
2020/12/24 09:06:42;;;;;;;3.50;1.30;;;;;;;7.94;64.62;95967.84;5111537;28;20442;-70
2020/12/24 09:09:07;;;;;;;3.40;0.93;;;;;;;8.25;64.38;95963.69;5112203;28;20439;-70
2020/12/24 09:11:33;;;;;;;2.70;1.03;;;;;;;8.32;64.19;95948.97;5113204;28;20419;-71
2020/12/24 09:14:02;;;;;;;4.07;1.20;;;;;;;8.32;64.76;95976.88;5112290;28;20240;-73
2020/12/24 09:16:30;;;;;;;3.53;0.90;;;;;;;7.78;65.29;95983.50;5102686;28;20201;-70
2020/12/24 09:19:16;;;;;;;2.20;1.00;;;;;;;8.22;63.96;95958.78;5111510;28;20835;-70
2020/12/24 09:21:50;;;;;;;3.80;0.87;;;;;;;8.12;64.52;95970.25;5111863;28;20414;-71
2020/12/24 09:24:16;;;;;;;3.00;0.83;;;;;;;8.62;63.00;95974.53;5112565;28;20513;-69
2020/12/24 09:26:54;;;;;;;1.53;0.80;;;;;;;8.58;63.18;95971.41;5108839;28;20408;-70
2020/12/24 09:29:25;;;;;;;4.03;0.90;;;;;;;8.52;63.39;95970.28;5098482;28;20196;-71
2020/12/24 09:31:55;;;;;;;2.13;0.70;;;;;;;8.50;63.50;95971.47;5111071;28;20427;-71
2020/12/24 09:34:21;;;;;;;1.73;0.80;;;;;;;8.50;62.86;95966.22;5105158;28;20766;-71
2020/12/24 09:36:47;;;;;;;3.30;1.00;;;;;;;8.29;63.51;95955.34;5108098;28;20442;-72
2020/12/24 09:39:13;;;;;;;5.10;1.10;;;;;;;8.74;62.40;95971.34;5110033;28;20631;-72
2020/12/24 09:41:43;;;;;;;1.70;0.70;;;;;;;8.17;63.41;95968.94;5111163;28;20449;-71
2020/12/24 09:44:10;;;;;;;3.10;1.10;;;;;;;8.36;63.29;95975.56;5094888;28;20451;-72
2020/12/24 09:46:36;;;;;;;4.80;1.00;;;;;;;8.26;63.49;95975.75;5115351;28;20842;-72
2020/12/24 09:49:02;;;;;;;2.50;0.97;;;;;;;8.52;63.34;95990.38;5106495;27;20439;-71
2020/12/24 09:51:31;;;;;;;5.63;1.23;;;;;;;8.06;64.25;95981.34;5108786;28;20182;-70
2020/12/24 09:53:56;;;;;;;1.50;0.70;;;;;;;8.05;63.76;95976.28;5113752;28;20426;-72
2020/12/24 09:56:22;;;;;;;2.43;1.23;;;;;;;8.50;62.66;95979.28;5114642;28;20461;-71
2020/12/24 09:58:48;;;;;;;3.40;0.90;;;;;;;8.21;64.04;95973.66;5109306;28;20204;-70
2020/12/24 10:01:16;;;;;;;1.90;0.87;;;;;;;8.14;63.27;95983.09;5114840;28;20173;-70
2020/12/24 10:03:42;;;;;;;3.30;1.30;;;;;;;8.34;62.86;95988.78;5114915;28;20180;-67
2020/12/24 10:06:07;;;;;;;4.13;1.10;;;;;;;8.46;62.89;95987.41;5103127;28;20472;-72
2020/12/24 10:08:34;;;;;;;3.73;0.77;;;;;;;8.65;61.45;95975.00;5106965;28;20434;-71
2020/12/24 10:11:00;;;;;;;3.20;0.93;;;;;;;8.72;61.61;95996.81;5101679;28;20268;-69
2020/12/24 10:13:25;;;;;;;6.40;1.40;;;;;;;8.82;61.97;95974.91;5095120;28;20415;-69
2020/12/24 10:15:51;;;;;;;7.47;0.87;;;;;;;9.11;61.07;95989.13;5112042;28;20267;-69
2020/12/24 10:18:17;;;;;;;8.07;2.07;;;;;;;8.66;62.16;95987.06;5111711;28;20327;-71
2020/12/24 10:20:42;;;;;;;2.30;0.80;;;;;;;8.72;62.70;95991.59;5093034;28;20597;-69
2020/12/24 10:23:10;;;;;;;2.70;1.30;;;;;;;8.88;61.29;95993.31;5114226;28;20663;-68
2020/12/24 10:25:39;;;;;;;3.63;1.20;;;;;;;8.86;61.16;95997.09;5111628;28;20554;-70
2020/12/24 10:28:06;;;;;;;3.00;0.97;;;;;;;8.91;61.51;95990.38;5103869;28;20445;-69
2020/12/24 10:30:32;;;;;;;2.07;0.90;;;;;;;9.20;60.52;95996.75;5114442;28;20430;-71
2020/12/24 10:32:58;;;;;;;2.53;1.07;;;;;;;9.08;61.62;95987.66;5114118;28;20435;-69
2020/12/24 10:35:23;;;;;;;1.77;0.73;;;;;;;9.30;60.37;95986.06;5115247;28;21005;-71
2020/12/24 10:37:49;;;;;;;2.30;1.00;;;;;;;9.37;60.53;95994.81;5113655;28;20214;-70
2020/12/24 10:40:15;;;;;;;1.80;0.70;;;;;;;9.10;61.50;95987.47;5107673;28;20312;-72
2020/12/24 10:42:46;;;;;;;2.30;0.60;;;;;;;8.97;62.09;95988.06;5092795;28;20205;-71
2020/12/24 10:45:12;;;;;;;1.67;0.90;;;;;;;9.18;60.88;96000.53;5114144;28;20177;-71
2020/12/24 10:47:38;;;;;;;1.40;0.90;;;;;;;9.11;61.12;95976.88;5113952;28;20427;-71
2020/12/24 10:50:04;;;;;;;3.83;0.70;;;;;;;9.32;60.62;95985.88;5079337;28;20758;-71
2020/12/24 10:52:30;;;;;;;2.33;0.80;;;;;;;9.02;61.41;96007.47;5095666;28;20679;-71
2020/12/24 10:54:55;;;;;;;2.50;0.80;;;;;;;9.37;60.61;95994.81;5113799;28;20419;-71
2020/12/24 10:57:21;;;;;;;1.93;0.80;;;;;;;9.38;60.16;95995.66;5113117;28;20189;-71
2020/12/24 10:59:46;;;;;;;1.67;0.80;;;;;;;9.13;60.50;95994.97;5092810;28;20279;-70
2020/12/24 11:02:12;;;;;;;2.20;0.80;;;;;;;9.37;60.35;96017.56;5096134;28;20184;-72
2020/12/24 11:04:38;;;;;;;1.40;0.60;;;;;;;9.05;61.12;96001.06;5095535;28;20752;-70
2020/12/24 11:07:03;;;;;;;2.50;0.87;;;;;;;9.17;60.94;96002.31;5095985;28;20182;-70
2020/12/24 11:09:30;;;;;;;1.00;0.80;;;;;;;9.17;60.19;96004.13;5114405;28;20533;-71
2020/12/24 11:11:55;;;;;;;2.03;1.20;;;;;;;9.04;61.10;96015.94;5096022;28;20592;-71
2020/12/24 11:14:21;;;;;;;3.33;0.80;;;;;;;9.17;61.32;96025.03;5096191;28;20430;-70
2020/12/24 11:16:47;;;;;;;1.37;0.80;;;;;;;9.22;60.45;96012.25;5114303;28;20211;-69
2020/12/24 11:19:12;;;;;;;0.90;0.60;;;;;;;9.07;61.29;96020.81;5113837;28;20255;-70
2020/12/24 11:21:38;;;;;;;1.83;0.90;;;;;;;8.96;60.95;96023.00;5117212;28;20181;-70
2020/12/24 11:24:05;;;;;;;4.60;1.20;;;;;;;8.92;61.43;96027.78;5118439;28;20254;-70
2020/12/24 11:26:33;;;;;;;4.70;0.73;;;;;;;8.77;61.56;96009.38;5116378;28;20524;-70
2020/12/24 11:28:59;;;;;;;1.00;0.80;;;;;;;8.78;62.47;96012.81;5108325;28;20443;-71
2020/12/24 11:31:29;;;;;;;2.00;1.00;;;;;;;8.93;61.80;96003.28;5114090;28;20418;-71
2020/12/24 11:33:55;;;;;;;3.00;1.10;;;;;;;9.13;60.69;96002.81;5113188;28;20229;-71
2020/12/24 11:36:21;;;;;;;1.53;0.80;;;;;;;9.10;60.88;96008.38;5114308;28;20849;-70
2020/12/24 11:38:48;;;;;;;1.40;0.87;;;;;;;8.81;62.08;95995.00;5094735;28;20448;-70
2020/12/24 11:41:19;;;;;;;1.10;0.90;;;;;;;8.99;61.25;95997.34;5096340;28;20419;-70